Time;durP1;ratioP1;P1;durP2;ratioP2;P2;SDS_P1;SDS_P2;PMS_P1;PMS_P2;Temp;Humidity;BMP_temperature;BMP_pressure;BME280_temperature;BME280_humidity;BME280_pressure;Samples;Min_cycle;Max_cycle;Signal;HPM_P1;HPM_P2
2024/03/08 00:02:15;;;;;;;14.27;7.45;;;;;;;;;;5058590;28;20055;-78
2024/03/08 00:04:42;;;;;;;16.05;8.80;;;;;;;;;;5046449;28;20044;-77
2024/03/08 00:07:08;;;;;;;12.30;7.65;;;;;;;;;;5055622;28;20063;-77
2024/03/08 00:09:34;;;;;;;13.40;8.10;;;;;;;;;;5054214;28;20051;-77
2024/03/08 00:12:00;;;;;;;12.82;8.20;;;;;;;;;;5036510;28;20023;-77
2024/03/08 00:14:27;;;;;;;16.67;9.35;;;;;;;;;;5045996;28;20021;-75
2024/03/08 00:16:54;;;;;;;16.75;9.75;;;;;;;;;;5054410;28;20104;-77
2024/03/08 00:19:20;;;;;;;13.70;8.07;;;;;;;;;;5036269;28;20035;-77
2024/03/08 00:21:46;;;;;;;17.60;8.98;;;;;;;;;;5045682;28;20051;-76
2024/03/08 00:24:12;;;;;;;18.30;9.88;;;;;;;;;;5042165;28;20025;-76
2024/03/08 00:26:38;;;;;;;16.35;8.52;;;;;;;;;;5055532;28;20032;-76
2024/03/08 00:29:05;;;;;;;17.60;10.18;;;;;;;;;;5060693;28;20025;-75
2024/03/08 00:31:31;;;;;;;15.82;9.07;;;;;;;;;;5048817;28;20491;-75
2024/03/08 00:33:57;;;;;;;16.52;9.25;;;;;;;;;;5058444;28;20021;-77
2024/03/08 00:36:24;;;;;;;15.02;8.00;;;;;;;;;;5048707;28;20051;-77
2024/03/08 00:38:51;;;;;;;15.15;8.50;;;;;;;;;;5059094;28;20025;-77
2024/03/08 00:41:17;;;;;;;13.35;8.20;;;;;;;;;;5041236;28;20029;-76
2024/03/08 00:43:43;;;;;;;15.02;8.10;;;;;;;;;;5060117;28;20033;-77
2024/03/08 00:46:09;;;;;;;17.98;8.95;;;;;;;;;;5059316;28;20057;-75
2024/03/08 00:48:36;;;;;;;18.02;10.07;;;;;;;;;;5043698;28;20207;-77
2024/03/08 00:51:02;;;;;;;15.40;8.38;;;;;;;;;;5058500;28;20017;-76
2024/03/08 00:53:28;;;;;;;16.83;9.75;;;;;;;;;;5039800;28;20553;-77
2024/03/08 00:55:54;;;;;;;20.15;10.85;;;;;;;;;;5040502;28;20029;-76
2024/03/08 00:58:21;;;;;;;16.88;10.07;;;;;;;;;;5059936;28;20466;-76
2024/03/08 01:00:47;;;;;;;18.27;10.45;;;;;;;;;;5032252;28;20094;-76
2024/03/08 01:03:13;;;;;;;17.73;10.40;;;;;;;;;;5058573;28;20100;-76
2024/03/08 01:05:39;;;;;;;19.55;10.90;;;;;;;;;;5060406;28;20507;-76
2024/03/08 01:08:06;;;;;;;16.83;10.38;;;;;;;;;;5043932;28;20035;-77
2024/03/08 01:10:32;;;;;;;16.88;9.77;;;;;;;;;;5056152;28;20028;-77
2024/03/08 01:12:59;;;;;;;15.18;9.48;;;;;;;;;;5057267;28;20016;-77
2024/03/08 01:15:25;;;;;;;18.88;10.13;;;;;;;;;;5057375;28;20029;-76
2024/03/08 01:17:51;;;;;;;19.25;10.75;;;;;;;;;;5056480;28;20095;-76
2024/03/08 01:20:18;;;;;;;18.98;9.55;;;;;;;;;;5055894;28;20062;-76
2024/03/08 01:22:44;;;;;;;14.52;9.00;;;;;;;;;;5056497;28;20028;-76
2024/03/08 01:25:10;;;;;;;18.27;10.50;;;;;;;;;;5047980;28;20025;-76
2024/03/08 01:27:36;;;;;;;17.10;9.98;;;;;;;;;;5064601;28;20025;-76
2024/03/08 01:30:03;;;;;;;17.67;10.10;;;;;;;;;;5033650;28;20041;-76
2024/03/08 01:32:29;;;;;;;16.75;8.95;;;;;;;;;;5059535;28;20447;-77
2024/03/08 01:34:56;;;;;;;16.92;8.90;;;;;;;;;;5043672;28;20142;-76
2024/03/08 01:37:22;;;;;;;11.40;7.25;;;;;;;;;;5059937;28;20357;-77
2024/03/08 01:39:48;;;;;;;12.63;8.25;;;;;;;;;;5042446;28;20055;-76
2024/03/08 01:42:17;;;;;;;15.55;9.38;;;;;;;;;;5045421;28;20017;-77
2024/03/08 01:44:43;;;;;;;22.27;11.75;;;;;;;;;;5057506;28;20056;-77
2024/03/08 01:47:11;;;;;;;19.02;10.07;;;;;;;;;;5045673;28;20422;-76
2024/03/08 01:49:37;;;;;;;19.58;10.45;;;;;;;;;;5055734;28;20013;-75
2024/03/08 01:52:06;;;;;;;18.25;9.75;;;;;;;;;;5074164;28;20080;-76
2024/03/08 01:54:32;;;;;;;20.23;11.68;;;;;;;;;;5073412;28;20032;-75
2024/03/08 01:56:59;;;;;;;23.63;12.10;;;;;;;;;;5068137;28;20017;-77
2024/03/08 01:59:26;;;;;;;19.77;11.73;;;;;;;;;;5044173;28;20511;-76
2024/03/08 02:01:55;;;;;;;18.88;10.27;;;;;;;;;;5060950;28;20044;-77
2024/03/08 02:04:21;;;;;;;16.63;9.45;;;;;;;;;;5044547;28;20132;-76
2024/03/08 02:06:48;;;;;;;19.65;10.45;;;;;;;;;;5040993;28;20021;-76
2024/03/08 02:09:14;;;;;;;18.77;10.30;;;;;;;;;;5059146;28;20013;-77
2024/03/08 02:11:44;;;;;;;16.70;9.48;;;;;;;;;;5061305;28;20105;-76
2024/03/08 02:14:11;;;;;;;18.23;9.95;;;;;;;;;;5045428;28;20156;-77
2024/03/08 02:16:37;;;;;;;16.08;9.35;;;;;;;;;;5064565;28;20021;-77
2024/03/08 02:19:03;;;;;;;18.77;9.90;;;;;;;;;;5043892;28;20032;-76
2024/03/08 02:21:30;;;;;;;16.67;9.68;;;;;;;;;;5063970;28;20056;-75
2024/03/08 02:23:57;;;;;;;16.73;10.18;;;;;;;;;;5062806;28;20050;-77
2024/03/08 02:26:29;;;;;;;15.57;9.82;;;;;;;;;;5043107;28;20052;-76
2024/03/08 02:28:55;;;;;;;;;;;;;;;;;;5043200;28;20025;-76
2024/03/08 02:31:21;;;;;;;17.98;9.98;;;;;;;;;;5043304;28;19923;-76
2024/03/08 02:33:48;;;;;;;16.92;9.10;;;;;;;;;;5051277;28;20035;-76
2024/03/08 02:36:14;;;;;;;17.02;9.07;;;;;;;;;;5072879;28;20008;-76
2024/03/08 02:38:41;;;;;;;16.00;9.05;;;;;;;;;;5058061;28;20055;-77
2024/03/08 02:41:08;;;;;;;17.95;9.60;;;;;;;;;;5055095;28;20045;-75
2024/03/08 02:43:35;;;;;;;17.20;10.43;;;;;;;;;;5055773;28;20136;-75
2024/03/08 02:46:01;;;;;;;15.90;9.30;;;;;;;;;;5073794;28;20062;-75
2024/03/08 02:48:27;;;;;;;18.13;9.65;;;;;;;;;;5056532;28;20056;-74
2024/03/08 02:50:53;;;;;;;19.63;10.55;;;;;;;;;;5048407;28;20044;-76
2024/03/08 02:53:19;;;;;;;16.42;9.70;;;;;;;;;;5049115;28;20052;-77
2024/03/08 02:55:46;;;;;;;15.68;9.43;;;;;;;;;;5057372;28;20055;-76
2024/03/08 02:58:14;;;;;;;17.30;9.88;;;;;;;;;;5042723;28;20112;-76
2024/03/08 03:00:40;;;;;;;18.30;10.32;;;;;;;;;;5055646;28;20036;-76
2024/03/08 03:03:07;;;;;;;15.23;9.10;;;;;;;;;;5039965;28;20081;-77
2024/03/08 03:05:33;;;;;;;14.95;8.65;;;;;;;;;;5040240;28;20428;-77
2024/03/08 03:07:59;;;;;;;17.67;10.80;;;;;;;;;;5053571;28;20342;-76
2024/03/08 03:10:26;;;;;;;18.77;10.63;;;;;;;;;;5030633;28;20025;-77
2024/03/08 03:12:52;;;;;;;21.00;11.18;;;;;;;;;;5054796;28;20036;-76
2024/03/08 03:15:18;;;;;;;19.23;10.18;;;;;;;;;;5036816;28;20097;-77
2024/03/08 03:17:48;;;;;;;18.73;11.02;;;;;;;;;;5055260;28;20078;-77
2024/03/08 03:20:22;;;;;;;27.10;12.30;;;;;;;;;;5053899;28;20025;-76
2024/03/08 03:22:51;;;;;;;24.42;12.95;;;;;;;;;;5035934;28;20041;-76
2024/03/08 03:25:23;;;;;;;24.58;14.13;;;;;;;;;;5039670;28;20108;-76
2024/03/08 03:27:49;;;;;;;24.08;12.68;;;;;;;;;;5058834;28;20059;-77
2024/03/08 03:30:22;;;;;;;23.00;11.68;;;;;;;;;;5056754;28;20017;-77
2024/03/08 03:32:51;;;;;;;20.02;11.23;;;;;;;;;;5057450;28;20028;-77
2024/03/08 03:35:18;;;;;;;19.10;10.27;;;;;;;;;;5038325;28;20392;-77
2024/03/08 03:37:51;;;;;;;20.20;11.05;;;;;;;;;;5059944;28;20116;-76
2024/03/08 03:40:19;;;;;;;20.15;9.75;;;;;;;;;;5060278;28;20108;-77
2024/03/08 03:42:45;;;;;;;18.17;10.20;;;;;;;;;;5032203;28;20040;-76
2024/03/08 03:45:13;;;;;;;17.10;9.60;;;;;;;;;;5057462;28;20052;-76
2024/03/08 03:47:39;;;;;;;17.00;9.90;;;;;;;;;;5064122;28;20021;-76
2024/03/08 03:50:06;;;;;;;20.90;10.88;;;;;;;;;;5066091;28;20017;-76
2024/03/08 03:52:33;;;;;;;17.40;10.05;;;;;;;;;;5067187;28;20017;-75
2024/03/08 03:54:59;;;;;;;20.70;11.63;;;;;;;;;;5043273;28;20028;-76
2024/03/08 03:57:25;;;;;;;17.52;10.00;;;;;;;;;;5055682;28;20044;-75
2024/03/08 03:59:51;;;;;;;16.98;9.77;;;;;;;;;;5053210;28;20048;-76
2024/03/08 04:02:20;;;;;;;19.50;10.27;;;;;;;;;;5054572;28;20048;-75
2024/03/08 04:04:46;;;;;;;16.15;9.10;;;;;;;;;;5053028;28;20047;-75
2024/03/08 04:07:12;;;;;;;15.68;9.63;;;;;;;;;;5046976;28;20024;-76
2024/03/08 04:09:38;;;;;;;25.13;13.02;;;;;;;;;;5059192;28;20024;-76
2024/03/08 04:12:05;;;;;;;26.02;13.38;;;;;;;;;;5040755;28;20039;-76
2024/03/08 04:14:31;;;;;;;23.15;12.88;;;;;;;;;;5059194;28;20025;-76
2024/03/08 04:16:57;;;;;;;22.88;12.35;;;;;;;;;;5033306;28;20021;-75
2024/03/08 04:19:24;;;;;;;25.08;13.13;;;;;;;;;;5055866;28;20503;-76
2024/03/08 04:21:50;;;;;;;24.70;12.43;;;;;;;;;;5063545;28;20033;-77
2024/03/08 04:24:17;;;;;;;24.38;13.18;;;;;;;;;;5071962;28;20167;-78
2024/03/08 04:26:43;;;;;;;25.92;14.02;;;;;;;;;;5063466;28;20035;-77
2024/03/08 04:29:09;;;;;;;29.35;14.95;;;;;;;;;;5046581;28;20040;-77
2024/03/08 04:31:35;;;;;;;26.50;14.73;;;;;;;;;;5052574;28;20060;-77
2024/03/08 04:34:01;;;;;;;27.63;15.05;;;;;;;;;;5058636;28;20052;-76
2024/03/08 04:36:28;;;;;;;28.85;14.48;;;;;;;;;;5070886;28;20029;-78
2024/03/08 04:38:54;;;;;;;23.15;13.90;;;;;;;;;;5069847;28;20036;-77
2024/03/08 04:41:21;;;;;;;22.67;12.25;;;;;;;;;;5068585;28;20025;-77
2024/03/08 04:43:47;;;;;;;22.60;13.93;;;;;;;;;;5056144;28;20040;-77
2024/03/08 04:46:13;;;;;;;26.38;14.05;;;;;;;;;;5074049;28;20029;-77
2024/03/08 04:48:41;;;;;;;26.58;14.85;;;;;;;;;;5069148;28;20016;-76
2024/03/08 04:51:07;;;;;;;26.75;14.00;;;;;;;;;;5065050;28;20063;-78
2024/03/08 04:53:34;;;;;;;26.48;15.57;;;;;;;;;;5037762;28;20026;-77
2024/03/08 04:56:05;;;;;;;29.52;16.52;;;;;;;;;;5063290;28;20024;-78
2024/03/08 04:58:32;;;;;;;29.15;16.38;;;;;;;;;;5043963;28;20040;-77
2024/03/08 05:00:58;;;;;;;27.08;15.00;;;;;;;;;;5061356;28;20101;-78
2024/03/08 05:03:26;;;;;;;24.25;13.52;;;;;;;;;;5037857;28;20389;-78
2024/03/08 05:05:53;;;;;;;24.55;13.65;;;;;;;;;;5071232;28;20092;-77
2024/03/08 05:08:19;;;;;;;23.92;12.60;;;;;;;;;;5075649;28;20024;-77
2024/03/08 05:10:51;;;;;;;25.90;14.88;;;;;;;;;;5072101;28;20021;-78
2024/03/08 05:13:18;;;;;;;;;;;;;;;;;;5055465;28;20029;-78
2024/03/08 05:15:44;;;;;;;28.50;14.48;;;;;;;;;;5059257;28;19911;-78
2024/03/08 05:18:14;;;;;;;34.92;17.77;;;;;;;;;;5042792;28;20021;-76
2024/03/08 05:20:41;;;;;;;28.52;15.80;;;;;;;;;;5042294;28;20496;-77
2024/03/08 05:23:08;;;;;;;38.30;19.75;;;;;;;;;;5038096;28;20025;-76
2024/03/08 05:25:34;;;;;;;30.95;17.10;;;;;;;;;;5039658;28;20055;-77
2024/03/08 05:28:00;;;;;;;30.85;16.95;;;;;;;;;;5061665;28;20013;-77
2024/03/08 05:30:26;;;;;;;34.85;18.58;;;;;;;;;;5055190;28;20020;-75
2024/03/08 05:32:52;;;;;;;30.48;16.30;;;;;;;;;;5077002;28;20012;-76
2024/03/08 05:35:18;;;;;;;30.33;15.88;;;;;;;;;;5060277;28;20044;-74
2024/03/08 05:37:44;;;;;;;32.88;17.88;;;;;;;;;;5077667;28;20034;-75
2024/03/08 05:40:11;;;;;;;30.52;16.88;;;;;;;;;;5077559;28;20041;-75
2024/03/08 05:42:37;;;;;;;26.63;15.93;;;;;;;;;;5074725;28;20116;-75
2024/03/08 05:45:04;;;;;;;33.33;17.00;;;;;;;;;;5065853;28;20120;-77
2024/03/08 05:47:30;;;;;;;29.55;16.27;;;;;;;;;;5054597;28;20025;-76
2024/03/08 05:49:56;;;;;;;33.40;17.45;;;;;;;;;;5036762;28;20027;-75
2024/03/08 05:52:22;;;;;;;31.45;16.30;;;;;;;;;;5067631;28;20040;-76
2024/03/08 05:54:48;;;;;;;30.75;16.33;;;;;;;;;;5052225;28;20480;-76
2024/03/08 05:57:14;;;;;;;26.50;15.15;;;;;;;;;;5054632;28;20056;-77
2024/03/08 05:59:41;;;;;;;30.80;17.08;;;;;;;;;;5035585;28;20029;-77
2024/03/08 06:02:07;;;;;;;30.30;16.92;;;;;;;;;;5055282;28;20063;-76
2024/03/08 06:04:33;;;;;;;32.60;16.88;;;;;;;;;;5055156;28;20072;-76
2024/03/08 06:06:59;;;;;;;30.15;17.17;;;;;;;;;;5053965;28;20657;-76
2024/03/08 06:09:25;;;;;;;31.17;16.75;;;;;;;;;;5055802;28;20407;-76
2024/03/08 06:11:53;;;;;;;36.83;17.45;;;;;;;;;;5045426;28;20102;-78
2024/03/08 06:14:19;;;;;;;29.17;16.10;;;;;;;;;;5054747;28;20020;-77
2024/03/08 06:16:46;;;;;;;30.75;16.70;;;;;;;;;;5036643;28;20025;-75
2024/03/08 06:19:13;;;;;;;31.17;16.15;;;;;;;;;;5054406;28;20025;-76
2024/03/08 06:21:39;;;;;;;27.67;14.45;;;;;;;;;;5054211;28;20376;-76
2024/03/08 06:24:05;;;;;;;31.98;15.57;;;;;;;;;;5054980;28;20151;-76
2024/03/08 06:26:31;;;;;;;28.80;15.60;;;;;;;;;;5054795;28;20033;-77
2024/03/08 06:28:58;;;;;;;27.70;14.75;;;;;;;;;;5048670;28;20021;-76
2024/03/08 06:31:24;;;;;;;30.05;15.30;;;;;;;;;;5049195;28;20017;-76
2024/03/08 06:33:50;;;;;;;26.33;13.40;;;;;;;;;;5043616;28;20317;-76
2024/03/08 06:36:21;;;;;;;21.30;13.38;;;;;;;;;;5051408;28;20116;-76
2024/03/08 06:38:47;;;;;;;23.80;13.50;;;;;;;;;;5054230;28;20021;-76
2024/03/08 06:41:15;;;;;;;20.20;12.30;;;;;;;;;;5053850;28;20053;-76
2024/03/08 06:43:45;;;;;;;22.98;12.32;;;;;;;;;;5039140;28;20388;-76
2024/03/08 06:46:12;;;;;;;21.40;12.35;;;;;;;;;;5056295;28;20108;-76
2024/03/08 06:48:39;;;;;;;25.85;13.43;;;;;;;;;;5039539;28;20055;-75
2024/03/08 06:51:05;;;;;;;20.92;12.30;;;;;;;;;;5060254;28;20037;-75
2024/03/08 06:53:31;;;;;;;20.10;11.68;;;;;;;;;;5067102;28;20028;-76
2024/03/08 06:55:58;;;;;;;27.73;14.88;;;;;;;;;;5034581;28;20083;-77
2024/03/08 06:58:24;;;;;;;21.15;12.20;;;;;;;;;;5041581;28;20028;-76
2024/03/08 07:00:53;;;;;;;21.95;12.88;;;;;;;;;;5053309;28;20033;-77
2024/03/08 07:03:21;;;;;;;25.75;12.82;;;;;;;;;;5038764;28;20021;-76
2024/03/08 07:05:48;;;;;;;23.75;12.77;;;;;;;;;;5053043;28;20025;-76
2024/03/08 07:08:15;;;;;;;22.92;12.73;;;;;;;;;;5053173;28;20017;-75
2024/03/08 07:10:41;;;;;;;19.35;11.63;;;;;;;;;;5053897;28;20044;-77
2024/03/08 07:13:08;;;;;;;20.17;11.80;;;;;;;;;;5041916;28;20028;-76
2024/03/08 07:15:35;;;;;;;19.05;11.52;;;;;;;;;;5063675;28;20033;-76
2024/03/08 07:18:01;;;;;;;19.08;11.32;;;;;;;;;;5037501;28;20052;-76
2024/03/08 07:20:28;;;;;;;27.05;14.15;;;;;;;;;;5062111;28;20040;-76
2024/03/08 07:22:54;;;;;;;29.33;15.98;;;;;;;;;;5072926;28;20530;-76
2024/03/08 07:25:21;;;;;;;27.45;14.65;;;;;;;;;;5050039;28;20029;-76
2024/03/08 07:27:51;;;;;;;28.80;14.30;;;;;;;;;;5052692;28;20376;-75
2024/03/08 07:33:02;;;;;;;24.13;12.77;;;;;;;;;;5048241;28;20699;-76
2024/03/08 07:35:29;;;;;;;21.95;11.45;;;;;;;;;;5054512;28;20094;-76
2024/03/08 07:37:55;;;;;;;18.65;10.48;;;;;;;;;;5058401;28;20044;-75
2024/03/08 07:40:23;;;;;;;16.70;9.95;;;;;;;;;;5059879;28;20055;-76
2024/03/08 07:42:49;;;;;;;18.70;10.90;;;;;;;;;;5051026;28;20025;-76
2024/03/08 07:45:16;;;;;;;23.83;14.07;;;;;;;;;;5071465;28;20100;-75
2024/03/08 07:47:42;;;;;;;24.83;13.82;;;;;;;;;;5045529;28;20018;-76
2024/03/08 07:50:08;;;;;;;21.60;12.75;;;;;;;;;;5055885;28;20024;-76
2024/03/08 07:52:36;;;;;;;26.00;13.38;;;;;;;;;;5036662;28;20033;-76
2024/03/08 07:55:03;;;;;;;21.70;11.98;;;;;;;;;;5033918;28;20045;-75
2024/03/08 07:57:29;;;;;;;24.05;14.07;;;;;;;;;;5070827;28;20021;-74
2024/03/08 07:59:56;;;;;;;30.83;14.52;;;;;;;;;;5053161;28;20044;-76
2024/03/08 08:02:22;;;;;;;24.42;14.23;;;;;;;;;;5071817;28;20039;-76
2024/03/08 08:04:48;;;;;;;24.88;14.00;;;;;;;;;;5073327;28;20051;-76
2024/03/08 08:07:14;;;;;;;20.15;12.40;;;;;;;;;;5081419;28;20009;-76
2024/03/08 08:09:42;;;;;;;24.83;12.85;;;;;;;;;;5062736;28;20053;-75
2024/03/08 08:12:11;;;;;;;20.08;11.00;;;;;;;;;;5056501;28;20013;-77
2024/03/08 08:14:38;;;;;;;18.63;10.63;;;;;;;;;;5049562;28;20017;-76
2024/03/08 08:17:05;;;;;;;20.08;10.93;;;;;;;;;;5057116;28;20028;-75
2024/03/08 08:19:31;;;;;;;23.55;12.90;;;;;;;;;;5057438;28;20029;-75
2024/03/08 08:21:58;;;;;;;25.65;13.57;;;;;;;;;;5059095;28;20048;-76
2024/03/08 08:24:24;;;;;;;20.83;13.00;;;;;;;;;;5074215;28;20104;-75
2024/03/08 08:26:50;;;;;;;20.25;12.27;;;;;;;;;;5075243;28;20021;-76
2024/03/08 08:29:16;;;;;;;22.88;12.98;;;;;;;;;;5051499;28;20123;-77
2024/03/08 08:31:43;;;;;;;20.77;12.57;;;;;;;;;;5035131;28;20396;-75
2024/03/08 08:34:13;;;;;;;24.45;13.15;;;;;;;;;;5039310;28;20029;-75
2024/03/08 08:36:40;;;;;;;24.33;12.38;;;;;;;;;;5041771;28;20021;-75
2024/03/08 08:39:12;;;;;;;23.63;13.15;;;;;;;;;;5067695;28;20029;-76
2024/03/08 08:41:38;;;;;;;18.80;12.15;;;;;;;;;;5069451;28;20029;-75
2024/03/08 08:44:04;;;;;;;20.60;12.13;;;;;;;;;;5056917;28;20017;-76
2024/03/08 08:46:30;;;;;;;21.55;12.02;;;;;;;;;;5043468;28;20119;-77
2024/03/08 08:48:56;;;;;;;17.30;10.35;;;;;;;;;;5047713;28;20029;-75
2024/03/08 08:51:23;;;;;;;17.83;10.15;;;;;;;;;;5039530;28;20468;-75
2024/03/08 08:53:49;;;;;;;20.38;11.82;;;;;;;;;;5052920;28;20028;-76
2024/03/08 08:56:15;;;;;;;20.40;11.95;;;;;;;;;;5033781;28;20030;-76
2024/03/08 08:58:45;;;;;;;20.38;11.68;;;;;;;;;;5052698;28;20079;-76
2024/03/08 09:01:11;;;;;;;20.85;12.80;;;;;;;;;;5056609;28;20069;-76
2024/03/08 09:03:40;;;;;;;21.48;11.82;;;;;;;;;;5076920;22;20040;-79
2024/03/08 09:06:09;;;;;;;17.80;10.35;;;;;;;;;;5079939;28;20025;-79
2024/03/08 09:08:36;;;;;;;14.73;9.88;;;;;;;;;;5097744;28;20027;-78
2024/03/08 09:11:02;;;;;;;14.45;9.95;;;;;;;;;;5080325;28;20039;-79
2024/03/08 09:13:28;;;;;;;14.10;8.93;;;;;;;;;;5095833;28;20034;-79
2024/03/08 09:15:54;;;;;;;13.35;8.75;;;;;;;;;;5078793;28;20016;-78
2024/03/08 09:18:20;;;;;;;13.60;8.88;;;;;;;;;;5079960;28;20474;-78
2024/03/08 09:20:47;;;;;;;12.52;8.43;;;;;;;;;;5097574;28;20028;-79
2024/03/08 09:23:14;;;;;;;13.95;7.97;;;;;;;;;;5087715;28;20017;-80
2024/03/08 09:25:40;;;;;;;13.50;8.50;;;;;;;;;;5072107;28;20028;-79
2024/03/08 09:28:07;;;;;;;18.17;10.40;;;;;;;;;;5067999;28;20541;-78
2024/03/08 09:30:34;;;;;;;18.73;11.30;;;;;;;;;;5066779;28;20024;-78
2024/03/08 09:33:00;;;;;;;21.00;11.93;;;;;;;;;;5091273;28;20017;-79
2024/03/08 09:35:26;;;;;;;25.63;14.15;;;;;;;;;;5085057;28;20040;-78
2024/03/08 09:37:53;;;;;;;25.23;15.15;;;;;;;;;;5082083;28;20501;-80
2024/03/08 09:40:19;;;;;;;23.67;14.00;;;;;;;;;;5070843;28;20029;-78
2024/03/08 09:42:49;;;;;;;22.45;13.20;;;;;;;;;;5062010;28;20029;-79
2024/03/08 09:45:15;;;;;;;20.67;12.70;;;;;;;;;;5079371;28;20044;-80
2024/03/08 09:47:42;;;;;;;26.95;14.02;;;;;;;;;;5078623;28;20542;-78
2024/03/08 09:50:09;;;;;;;28.30;16.80;;;;;;;;;;5082511;28;20069;-80
2024/03/08 09:52:48;;;;;;;23.73;14.27;;;;;;;;;;5063575;28;20115;-78
2024/03/08 09:55:17;;;;;;;23.45;12.02;;;;;;;;;;5085139;28;20385;-79
2024/03/08 09:58:16;;;;;;;19.98;12.43;;;;;;;;;;5063422;28;20059;-79
2024/03/08 10:00:33;;;;;;;19.33;11.82;;;;;;;;;;5090146;28;20028;-79
2024/03/08 10:03:03;;;;;;;15.90;10.52;;;;;;;;;;5078607;28;20028;-79
2024/03/08 10:05:29;;;;;;;19.05;12.15;;;;;;;;;;5087495;28;20029;-79
2024/03/08 10:07:55;;;;;;;19.42;11.02;;;;;;;;;;5082166;28;20024;-79
2024/03/08 10:10:21;;;;;;;21.17;12.02;;;;;;;;;;5067777;28;20031;-78
2024/03/08 10:12:49;;;;;;;21.65;13.10;;;;;;;;;;5070017;28;20017;-79
2024/03/08 10:15:20;;;;;;;22.00;14.18;;;;;;;;;;5088658;28;20424;-79
2024/03/08 10:17:46;;;;;;;21.00;13.43;;;;;;;;;;5088329;28;20024;-79
2024/03/08 10:20:16;;;;;;;19.70;12.80;;;;;;;;;;5067220;28;20182;-79
2024/03/08 10:22:43;;;;;;;19.63;12.27;;;;;;;;;;5074069;28;20505;-78
2024/03/08 10:25:13;;;;;;;20.35;12.13;;;;;;;;;;5081527;28;20344;-77
2024/03/08 10:27:41;;;;;;;18.85;11.32;;;;;;;;;;5092453;28;20020;-78
2024/03/08 10:30:08;;;;;;;19.27;11.57;;;;;;;;;;5065837;28;20028;-79
2024/03/08 10:32:34;;;;;;;21.25;12.40;;;;;;;;;;5079239;28;20502;-79
2024/03/08 10:35:00;;;;;;;20.83;12.13;;;;;;;;;;5088577;28;20024;-78
2024/03/08 10:37:29;;;;;;;21.88;12.13;;;;;;;;;;5094941;28;20046;-80
2024/03/08 10:40:15;;;;;;;18.27;11.65;;;;;;;;;;5093355;28;20043;-78
2024/03/08 10:42:48;;;;;;;15.68;10.43;;;;;;;;;;5089463;28;20113;-79
2024/03/08 10:45:38;;;;;;;19.85;12.27;;;;;;;;;;5090329;28;20031;-78
2024/03/08 10:48:27;;;;;;;17.65;10.95;;;;;;;;;;5096676;28;20103;-80
2024/03/08 10:50:54;;;;;;;19.73;11.95;;;;;;;;;;5080532;28;20091;-81
2024/03/08 10:53:21;;;;;;;18.35;10.68;;;;;;;;;;5093888;28;20338;-79
2024/03/08 10:55:48;;;;;;;16.73;11.65;;;;;;;;;;5082388;28;20020;-79
2024/03/08 10:58:15;;;;;;;17.10;9.60;;;;;;;;;;5087498;28;20100;-80
2024/03/08 11:00:41;;;;;;;18.42;11.32;;;;;;;;;;5105424;28;20031;-79
2024/03/08 11:03:08;;;;;;;18.15;11.27;;;;;;;;;;5105434;28;20028;-79
2024/03/08 11:05:38;;;;;;;16.05;9.95;;;;;;;;;;5087399;28;20117;-79
2024/03/08 11:08:24;;;;;;;14.35;9.43;;;;;;;;;;5109206;28;20012;-80
2024/03/08 11:10:55;;;;;;;14.18;8.98;;;;;;;;;;5106580;28;20578;-79
2024/03/08 11:13:44;;;;;;;11.85;8.32;;;;;;;;;;5108815;28;20046;-78
2024/03/08 11:16:10;;;;;;;18.65;10.40;;;;;;;;;;5080882;28;20047;-77
2024/03/08 11:18:39;;;;;;;16.17;10.57;;;;;;;;;;5100321;28;20137;-81
2024/03/08 11:21:12;;;;;;;16.45;10.27;;;;;;;;;;5068656;28;20082;-81
2024/03/08 11:23:37;;;;;;;;;;;;;;;;;;5087898;28;20031;-79
2024/03/08 11:26:07;;;;;;;19.63;11.38;;;;;;;;;;5100114;28;19912;-79
2024/03/08 11:28:33;;;;;;;14.88;9.75;;;;;;;;;;5090284;28;20089;-80
2024/03/08 11:30:59;;;;;;;15.82;10.57;;;;;;;;;;5094552;28;20032;-80
2024/03/08 11:33:29;;;;;;;14.40;9.68;;;;;;;;;;5095919;28;20041;-79
2024/03/08 11:36:04;;;;;;;14.48;9.45;;;;;;;;;;5085732;28;20065;-78
2024/03/08 11:38:33;;;;;;;14.68;9.18;;;;;;;;;;5072755;28;20103;-81
2024/03/08 11:40:59;;;;;;;16.05;10.07;;;;;;;;;;5087568;28;20024;-78
2024/03/08 11:43:25;;;;;;;17.27;11.07;;;;;;;;;;5070447;28;20032;-82
2024/03/08 11:45:52;;;;;;;20.60;12.32;;;;;;;;;;5071846;28;20040;-79
2024/03/08 11:48:19;;;;;;;20.25;12.13;;;;;;;;;;5069688;28;20024;-79
2024/03/08 11:50:45;;;;;;;17.80;11.93;;;;;;;;;;5094031;28;20031;-81
2024/03/08 11:53:13;;;;;;;14.43;9.63;;;;;;;;;;5090939;28;20040;-80
2024/03/08 11:55:39;;;;;;;14.55;9.50;;;;;;;;;;5097789;28;20034;-80
2024/03/08 11:58:10;;;;;;;14.48;9.93;;;;;;;;;;5082301;28;20577;-83
2024/03/08 12:00:38;;;;;;;12.95;8.32;;;;;;;;;;5093054;28;20450;-81
2024/03/08 12:03:07;;;;;;;12.60;7.80;;;;;;;;;;5081683;28;20044;-80
2024/03/08 12:05:33;;;;;;;13.55;8.80;;;;;;;;;;5070654;28;20490;-81
2024/03/08 12:08:00;;;;;;;10.70;7.38;;;;;;;;;;5081251;28;20044;-83
2024/03/08 12:10:27;;;;;;;19.40;11.77;;;;;;;;;;5082717;28;20040;-80
2024/03/08 12:12:54;;;;;;;16.85;10.40;;;;;;;;;;5063748;28;20063;-80
2024/03/08 12:15:21;;;;;;;13.18;9.38;;;;;;;;;;5069671;28;20521;-80
2024/03/08 12:17:49;;;;;;;12.23;8.23;;;;;;;;;;5074527;28;20094;-80
2024/03/08 12:20:22;;;;;;;15.27;9.18;;;;;;;;;;5063698;28;20025;-81
2024/03/08 12:22:48;;;;;;;17.95;11.23;;;;;;;;;;5088178;28;20027;-78
2024/03/08 12:25:16;;;;;;;16.75;11.88;;;;;;;;;;5084380;28;20028;-80
2024/03/08 12:27:42;;;;;;;17.45;11.77;;;;;;;;;;5100549;28;20031;-81
2024/03/08 12:30:28;;;;;;;19.10;12.60;;;;;;;;;;5087778;28;20028;-81
2024/03/08 12:32:58;;;;;;;17.67;11.77;;;;;;;;;;5068101;28;20028;-81
2024/03/08 12:35:29;;;;;;;16.08;10.48;;;;;;;;;;5090470;28;20088;-81
2024/03/08 12:37:58;;;;;;;16.13;10.98;;;;;;;;;;5103871;28;20024;-82
2024/03/08 12:40:28;;;;;;;22.08;14.23;;;;;;;;;;5090570;28;20035;-80
2024/03/08 12:42:55;;;;;;;18.27;12.15;;;;;;;;;;5073194;28;20144;-81
2024/03/08 12:45:23;;;;;;;18.38;11.75;;;;;;;;;;5085730;28;20024;-80
2024/03/08 12:47:50;;;;;;;21.30;11.93;;;;;;;;;;5091692;28;20013;-81
2024/03/08 12:50:16;;;;;;;15.93;11.40;;;;;;;;;;5072438;28;20039;-81
2024/03/08 12:52:42;;;;;;;21.33;12.65;;;;;;;;;;5087904;28;20040;-80
2024/03/08 12:55:09;;;;;;;19.85;11.95;;;;;;;;;;5082190;28;20031;-81
2024/03/08 12:57:37;;;;;;;17.25;11.00;;;;;;;;;;5073985;28;20031;-81
2024/03/08 13:00:04;;;;;;;20.60;12.90;;;;;;;;;;5094543;28;20024;-79
2024/03/08 13:02:31;;;;;;;18.48;11.50;;;;;;;;;;5100932;28;20035;-80
2024/03/08 13:04:58;;;;;;;15.18;10.35;;;;;;;;;;5067673;28;20029;-81
2024/03/08 13:07:28;;;;;;;15.80;10.45;;;;;;;;;;5096934;28;20017;-80
2024/03/08 13:09:55;;;;;;;17.30;10.95;;;;;;;;;;5072483;28;20027;-81
2024/03/08 13:12:21;;;;;;;14.80;10.27;;;;;;;;;;5083351;28;20260;-80
2024/03/08 13:14:48;;;;;;;16.20;10.15;;;;;;;;;;5069441;28;20079;-81
2024/03/08 13:17:15;;;;;;;15.52;10.60;;;;;;;;;;5061642;28;20031;-80
2024/03/08 13:19:42;;;;;;;18.38;10.48;;;;;;;;;;5060267;28;20715;-80
2024/03/08 13:22:18;;;;;;;16.15;10.70;;;;;;;;;;5064331;28;20024;-80
2024/03/08 13:24:45;;;;;;;14.75;10.18;;;;;;;;;;5070094;28;20048;-79
2024/03/08 13:27:21;;;;;;;15.85;11.38;;;;;;;;;;5062096;28;20116;-81
2024/03/08 13:29:48;;;;;;;15.70;10.95;;;;;;;;;;5057376;28;20023;-79
2024/03/08 13:32:15;;;;;;;17.95;10.48;;;;;;;;;;5058968;28;20033;-81
2024/03/08 13:34:41;;;;;;;15.25;10.68;;;;;;;;;;5046373;28;20666;-81
2024/03/08 13:37:09;;;;;;;16.50;10.75;;;;;;;;;;5046211;28;20111;-80
2024/03/08 13:39:40;;;;;;;14.55;9.77;;;;;;;;;;5056511;28;20021;-81
2024/03/08 13:42:18;;;;;;;17.60;10.65;;;;;;;;;;5064523;28;20025;-81
2024/03/08 13:44:45;;;;;;;19.00;11.43;;;;;;;;;;5052862;28;20092;-80
2024/03/08 13:47:13;;;;;;;15.23;10.82;;;;;;;;;;5067448;28;20032;-80
2024/03/08 13:49:39;;;;;;;14.57;9.93;;;;;;;;;;5073947;28;20016;-81
2024/03/08 13:52:08;;;;;;;14.57;8.73;;;;;;;;;;5047487;28;20072;-81
2024/03/08 13:54:34;;;;;;;18.65;11.65;;;;;;;;;;5046887;28;20476;-82
2024/03/08 13:57:03;;;;;;;15.40;10.50;;;;;;;;;;5077612;28;20448;-79
2024/03/08 13:59:30;;;;;;;15.15;9.98;;;;;;;;;;5070327;28;20016;-82
2024/03/08 14:01:57;;;;;;;16.67;11.15;;;;;;;;;;5044966;28;20021;-83
2024/03/08 14:04:24;;;;;;;15.30;11.07;;;;;;;;;;5049864;28;20102;-81
2024/03/08 14:06:56;;;;;;;12.38;8.57;;;;;;;;;;5083876;28;20021;-79
2024/03/08 14:09:24;;;;;;;13.73;9.23;;;;;;;;;;5052015;28;20545;-79
2024/03/08 14:11:53;;;;;;;11.90;7.80;;;;;;;;;;5083413;28;20017;-80
2024/03/08 14:14:20;;;;;;;12.88;8.90;;;;;;;;;;5044089;28;20021;-81
2024/03/08 14:16:47;;;;;;;13.30;9.32;;;;;;;;;;5061187;28;20025;-78
2024/03/08 14:19:15;;;;;;;15.00;10.18;;;;;;;;;;5068416;28;20028;-82
2024/03/08 14:21:42;;;;;;;13.45;9.52;;;;;;;;;;5068556;28;20032;-79
2024/03/08 14:24:08;;;;;;;15.70;10.63;;;;;;;;;;5053257;28;20017;-81
2024/03/08 14:26:38;;;;;;;16.95;10.25;;;;;;;;;;5066022;28;20094;-80